sensor_id;sensor_type;location;lat;lon;timestamp;temperature;humidity
48589;DHT22;34369;51.174;6.738;2023-01-15T00:02:21;8.00;84.50
48589;DHT22;34369;51.174;6.738;2023-01-15T00:04:53;8.00;85.00
48589;DHT22;34369;51.174;6.738;2023-01-15T00:07:26;8.00;85.10
48589;DHT22;34369;51.174;6.738;2023-01-15T00:10:04;7.90;85.40
48589;DHT22;34369;51.174;6.738;2023-01-15T00:12:38;7.90;85.80
48589;DHT22;34369;51.174;6.738;2023-01-15T00:15:10;7.70;85.90
48589;DHT22;34369;51.174;6.738;2023-01-15T00:20:15;7.60;86.50
48589;DHT22;34369;51.174;6.738;2023-01-15T00:22:47;7.60;86.70
48589;DHT22;34369;51.174;6.738;2023-01-15T00:25:25;7.70;87.20
48589;DHT22;34369;51.174;6.738;2023-01-15T00:28:16;7.70;87.20
48589;DHT22;34369;51.174;6.738;2023-01-15T00:30:48;7.60;87.50
48589;DHT22;34369;51.174;6.738;2023-01-15T00:33:21;7.50;87.80
48589;DHT22;34369;51.174;6.738;2023-01-15T00:35:56;7.50;88.20
48589;DHT22;34369;51.174;6.738;2023-01-15T00:38:30;7.40;88.50
48589;DHT22;34369;51.174;6.738;2023-01-15T00:41:04;7.30;88.50
48589;DHT22;34369;51.174;6.738;2023-01-15T00:43:36;7.40;88.70
48589;DHT22;34369;51.174;6.738;2023-01-15T00:46:09;7.40;88.30
48589;DHT22;34369;51.174;6.738;2023-01-15T00:48:42;7.30;88.40
48589;DHT22;34369;51.174;6.738;2023-01-15T00:51:14;7.20;88.00
48589;DHT22;34369;51.174;6.738;2023-01-15T00:53:46;7.30;87.70
48589;DHT22;34369;51.174;6.738;2023-01-15T00:56:20;7.20;87.50
48589;DHT22;34369;51.174;6.738;2023-01-15T00:58:52;7.20;87.50
48589;DHT22;34369;51.174;6.738;2023-01-15T01:01:24;7.20;87.20
48589;DHT22;34369;51.174;6.738;2023-01-15T01:03:57;7.10;87.50
48589;DHT22;34369;51.174;6.738;2023-01-15T01:06:30;6.90;87.40
48589;DHT22;34369;51.174;6.738;2023-01-15T01:09:03;7.20;87.70
48589;DHT22;34369;51.174;6.738;2023-01-15T01:11:36;7.00;87.30
48589;DHT22;34369;51.174;6.738;2023-01-15T01:14:10;6.90;86.90
48589;DHT22;34369;51.174;6.738;2023-01-15T01:16:43;7.00;87.20
48589;DHT22;34369;51.174;6.738;2023-01-15T01:19:17;7.00;87.20
48589;DHT22;34369;51.174;6.738;2023-01-15T01:21:53;6.90;87.00
48589;DHT22;34369;51.174;6.738;2023-01-15T01:24:26;7.00;86.80
48589;DHT22;34369;51.174;6.738;2023-01-15T01:27:00;6.90;86.40
48589;DHT22;34369;51.174;6.738;2023-01-15T01:29:32;7.10;86.40
48589;DHT22;34369;51.174;6.738;2023-01-15T01:32:04;6.90;85.90
48589;DHT22;34369;51.174;6.738;2023-01-15T01:34:37;6.80;85.90
48589;DHT22;34369;51.174;6.738;2023-01-15T01:37:10;6.80;85.80
48589;DHT22;34369;51.174;6.738;2023-01-15T01:39:42;6.80;85.80
48589;DHT22;34369;51.174;6.738;2023-01-15T01:42:16;6.80;85.40
48589;DHT22;34369;51.174;6.738;2023-01-15T01:45:18;6.70;85.30
48589;DHT22;34369;51.174;6.738;2023-01-15T01:47:58;6.70;85.20
48589;DHT22;34369;51.174;6.738;2023-01-15T01:50:34;6.70;85.20
48589;DHT22;34369;51.174;6.738;2023-01-15T01:53:11;6.70;85.10
48589;DHT22;34369;51.174;6.738;2023-01-15T01:55:46;6.70;85.00
48589;DHT22;34369;51.174;6.738;2023-01-15T01:58:22;6.70;85.00
48589;DHT22;34369;51.174;6.738;2023-01-15T02:00:56;6.60;84.80
48589;DHT22;34369;51.174;6.738;2023-01-15T02:03:33;6.70;84.90
48589;DHT22;34369;51.174;6.738;2023-01-15T02:06:09;6.70;84.50
48589;DHT22;34369;51.174;6.738;2023-01-15T02:08:42;6.60;84.30
48589;DHT22;34369;51.174;6.738;2023-01-15T02:11:19;6.70;84.40
48589;DHT22;34369;51.174;6.738;2023-01-15T02:13:59;6.60;84.50
48589;DHT22;34369;51.174;6.738;2023-01-15T02:16:41;6.60;84.10
48589;DHT22;34369;51.174;6.738;2023-01-15T02:19:29;6.60;84.20
48589;DHT22;34369;51.174;6.738;2023-01-15T02:22:13;6.60;84.20
48589;DHT22;34369;51.174;6.738;2023-01-15T02:24:59;6.60;84.40
48589;DHT22;34369;51.174;6.738;2023-01-15T02:27:40;6.60;84.50
48589;DHT22;34369;51.174;6.738;2023-01-15T02:30:17;6.50;84.30
48589;DHT22;34369;51.174;6.738;2023-01-15T02:32:55;6.60;84.40
48589;DHT22;34369;51.174;6.738;2023-01-15T02:35:35;6.60;84.30
48589;DHT22;34369;51.174;6.738;2023-01-15T02:38:11;6.70;84.30
48589;DHT22;34369;51.174;6.738;2023-01-15T02:40:48;6.60;84.20
48589;DHT22;34369;51.174;6.738;2023-01-15T02:43:24;6.60;84.00
48589;DHT22;34369;51.174;6.738;2023-01-15T02:46:00;6.70;84.10
48589;DHT22;34369;51.174;6.738;2023-01-15T02:48:37;6.70;84.30
48589;DHT22;34369;51.174;6.738;2023-01-15T02:51:13;6.60;84.20
48589;DHT22;34369;51.174;6.738;2023-01-15T02:53:47;6.70;84.30
48589;DHT22;34369;51.174;6.738;2023-01-15T02:56:23;6.60;84.10
48589;DHT22;34369;51.174;6.738;2023-01-15T02:59:04;6.70;84.40
48589;DHT22;34369;51.174;6.738;2023-01-15T03:01:46;6.70;84.30
48589;DHT22;34369;51.174;6.738;2023-01-15T03:04:27;6.60;84.20
48589;DHT22;34369;51.174;6.738;2023-01-15T03:07:08;6.80;83.90
48589;DHT22;34369;51.174;6.738;2023-01-15T03:09:43;6.80;84.20
48589;DHT22;34369;51.174;6.738;2023-01-15T03:12:21;6.60;83.80
48589;DHT22;34369;51.174;6.738;2023-01-15T03:15:02;6.70;83.90
48589;DHT22;34369;51.174;6.738;2023-01-15T03:17:46;6.70;83.80
48589;DHT22;34369;51.174;6.738;2023-01-15T03:20:22;6.60;83.20
48589;DHT22;34369;51.174;6.738;2023-01-15T03:23:03;6.60;83.40
48589;DHT22;34369;51.174;6.738;2023-01-15T03:25:41;6.70;83.40
48589;DHT22;34369;51.174;6.738;2023-01-15T03:28:20;6.60;83.40
48589;DHT22;34369;51.174;6.738;2023-01-15T03:30:59;6.70;83.60
48589;DHT22;34369;51.174;6.738;2023-01-15T03:33:33;6.70;83.50
48589;DHT22;34369;51.174;6.738;2023-01-15T03:36:07;6.70;83.60
48589;DHT22;34369;51.174;6.738;2023-01-15T03:38:42;6.70;83.70
48589;DHT22;34369;51.174;6.738;2023-01-15T03:41:23;6.80;83.80
48589;DHT22;34369;51.174;6.738;2023-01-15T03:44:05;6.60;83.60
48589;DHT22;34369;51.174;6.738;2023-01-15T03:46:53;6.70;83.70
48589;DHT22;34369;51.174;6.738;2023-01-15T03:49:41;6.60;83.70
48589;DHT22;34369;51.174;6.738;2023-01-15T03:52:21;6.80;83.60
48589;DHT22;34369;51.174;6.738;2023-01-15T03:55:05;6.80;83.80
48589;DHT22;34369;51.174;6.738;2023-01-15T03:57:48;6.30;83.50
48589;DHT22;34369;51.174;6.738;2023-01-15T04:00:26;6.60;83.40
48589;DHT22;34369;51.174;6.738;2023-01-15T04:03:04;6.80;83.50
48589;DHT22;34369;51.174;6.738;2023-01-15T04:05:39;6.80;83.40
48589;DHT22;34369;51.174;6.738;2023-01-15T04:08:13;6.80;83.50
48589;DHT22;34369;51.174;6.738;2023-01-15T04:10:52;6.80;83.40
48589;DHT22;34369;51.174;6.738;2023-01-15T04:13:25;6.80;83.00
48589;DHT22;34369;51.174;6.738;2023-01-15T04:16:00;6.80;83.00
48589;DHT22;34369;51.174;6.738;2023-01-15T04:18:37;6.70;83.00
48589;DHT22;34369;51.174;6.738;2023-01-15T04:21:10;6.70;82.80
48589;DHT22;34369;51.174;6.738;2023-01-15T04:23:42;6.70;82.70
48589;DHT22;34369;51.174;6.738;2023-01-15T04:26:17;6.70;82.60
48589;DHT22;34369;51.174;6.738;2023-01-15T04:28:50;6.70;82.90
48589;DHT22;34369;51.174;6.738;2023-01-15T04:31:22;6.60;82.60
48589;DHT22;34369;51.174;6.738;2023-01-15T04:33:56;6.70;82.50
48589;DHT22;34369;51.174;6.738;2023-01-15T04:36:28;6.80;82.50
48589;DHT22;34369;51.174;6.738;2023-01-15T04:39:01;6.70;82.50
48589;DHT22;34369;51.174;6.738;2023-01-15T04:41:34;6.70;82.30
48589;DHT22;34369;51.174;6.738;2023-01-15T04:44:24;6.70;82.40
48589;DHT22;34369;51.174;6.738;2023-01-15T04:46:58;6.70;82.40
48589;DHT22;34369;51.174;6.738;2023-01-15T04:49:33;6.60;82.40
48589;DHT22;34369;51.174;6.738;2023-01-15T04:52:06;6.70;82.20
48589;DHT22;34369;51.174;6.738;2023-01-15T04:54:40;6.70;82.30
48589;DHT22;34369;51.174;6.738;2023-01-15T04:57:12;6.70;82.30
48589;DHT22;34369;51.174;6.738;2023-01-15T04:59:45;6.80;82.60
48589;DHT22;34369;51.174;6.738;2023-01-15T05:02:17;6.70;82.50
48589;DHT22;34369;51.174;6.738;2023-01-15T05:04:51;7.50;83.00
48589;DHT22;34369;51.174;6.738;2023-01-15T05:07:23;6.60;82.90
48589;DHT22;34369;51.174;6.738;2023-01-15T05:09:55;6.70;82.50
48589;DHT22;34369;51.174;6.738;2023-01-15T05:12:28;6.70;82.50
48589;DHT22;34369;51.174;6.738;2023-01-15T05:15:01;6.70;82.70
48589;DHT22;34369;51.174;6.738;2023-01-15T05:17:34;6.70;82.60
48589;DHT22;34369;51.174;6.738;2023-01-15T05:20:10;6.70;82.80
48589;DHT22;34369;51.174;6.738;2023-01-15T05:22:44;6.70;82.70
48589;DHT22;34369;51.174;6.738;2023-01-15T05:25:17;6.60;82.80
48589;DHT22;34369;51.174;6.738;2023-01-15T05:27:49;6.50;82.90
48589;DHT22;34369;51.174;6.738;2023-01-15T05:30:21;6.70;82.90
48589;DHT22;34369;51.174;6.738;2023-01-15T05:32:54;6.70;82.90
48589;DHT22;34369;51.174;6.738;2023-01-15T05:35:28;6.70;82.90
48589;DHT22;34369;51.174;6.738;2023-01-15T05:38:01;5.90;82.40
48589;DHT22;34369;51.174;6.738;2023-01-15T05:40:39;6.60;82.70
48589;DHT22;34369;51.174;6.738;2023-01-15T05:43:11;6.60;82.60
48589;DHT22;34369;51.174;6.738;2023-01-15T05:45:44;6.60;82.50
48589;DHT22;34369;51.174;6.738;2023-01-15T05:48:16;6.60;82.20
48589;DHT22;34369;51.174;6.738;2023-01-15T05:50:51;6.60;82.20
48589;DHT22;34369;51.174;6.738;2023-01-15T05:53:23;6.70;82.30
48589;DHT22;34369;51.174;6.738;2023-01-15T05:55:56;6.60;82.30
48589;DHT22;34369;51.174;6.738;2023-01-15T05:58:32;6.70;82.40
48589;DHT22;34369;51.174;6.738;2023-01-15T06:01:06;6.70;82.40
48589;DHT22;34369;51.174;6.738;2023-01-15T06:03:39;6.70;82.50
48589;DHT22;34369;51.174;6.738;2023-01-15T06:06:15;6.70;82.50
48589;DHT22;34369;51.174;6.738;2023-01-15T06:08:49;6.60;82.40
48589;DHT22;34369;51.174;6.738;2023-01-15T06:11:22;6.50;82.20
48589;DHT22;34369;51.174;6.738;2023-01-15T06:13:54;6.60;82.10
48589;DHT22;34369;51.174;6.738;2023-01-15T06:16:27;6.70;82.30
48589;DHT22;34369;51.174;6.738;2023-01-15T06:19:00;6.70;82.60
48589;DHT22;34369;51.174;6.738;2023-01-15T06:21:38;6.50;82.30
48589;DHT22;34369;51.174;6.738;2023-01-15T06:24:14;6.70;82.50
48589;DHT22;34369;51.174;6.738;2023-01-15T06:26:47;6.70;82.50
48589;DHT22;34369;51.174;6.738;2023-01-15T06:29:20;6.60;82.50
48589;DHT22;34369;51.174;6.738;2023-01-15T06:31:53;6.70;82.60
48589;DHT22;34369;51.174;6.738;2023-01-15T06:34:25;6.60;82.30
48589;DHT22;34369;51.174;6.738;2023-01-15T06:37:00;6.60;82.50
48589;DHT22;34369;51.174;6.738;2023-01-15T06:39:36;6.60;82.60
48589;DHT22;34369;51.174;6.738;2023-01-15T06:42:08;6.60;82.30
48589;DHT22;34369;51.174;6.738;2023-01-15T06:44:58;6.60;82.40
48589;DHT22;34369;51.174;6.738;2023-01-15T06:48:03;6.70;82.30
48589;DHT22;34369;51.174;6.738;2023-01-15T06:50:39;6.70;82.60
48589;DHT22;34369;51.174;6.738;2023-01-15T06:53:12;6.50;82.30
48589;DHT22;34369;51.174;6.738;2023-01-15T06:55:45;6.70;82.30
48589;DHT22;34369;51.174;6.738;2023-01-15T06:58:17;6.60;82.40
48589;DHT22;34369;51.174;6.738;2023-01-15T07:00:51;6.50;82.20
48589;DHT22;34369;51.174;6.738;2023-01-15T07:03:26;6.70;82.30
48589;DHT22;34369;51.174;6.738;2023-01-15T07:05:58;6.60;82.30
48589;DHT22;34369;51.174;6.738;2023-01-15T07:08:33;6.50;82.30
48589;DHT22;34369;51.174;6.738;2023-01-15T07:11:14;6.50;82.40
48589;DHT22;34369;51.174;6.738;2023-01-15T07:13:50;6.50;82.20
48589;DHT22;34369;51.174;6.738;2023-01-15T07:16:38;6.50;82.20
48589;DHT22;34369;51.174;6.738;2023-01-15T07:19:30;6.60;82.20
48589;DHT22;34369;51.174;6.738;2023-01-15T07:22:22;6.50;82.00
48589;DHT22;34369;51.174;6.738;2023-01-15T07:25:03;6.60;82.30
48589;DHT22;34369;51.174;6.738;2023-01-15T07:27:48;6.50;82.10
48589;DHT22;34369;51.174;6.738;2023-01-15T07:30:24;6.50;82.20
48589;DHT22;34369;51.174;6.738;2023-01-15T07:33:01;6.50;82.20
48589;DHT22;34369;51.174;6.738;2023-01-15T07:35:42;6.50;82.20
48589;DHT22;34369;51.174;6.738;2023-01-15T07:38:23;6.50;82.20
48589;DHT22;34369;51.174;6.738;2023-01-15T07:41:18;6.50;82.00
48589;DHT22;34369;51.174;6.738;2023-01-15T07:44:11;6.50;82.00
48589;DHT22;34369;51.174;6.738;2023-01-15T07:47:15;6.40;82.20
48589;DHT22;34369;51.174;6.738;2023-01-15T07:50:14;4.90;81.30
48589;DHT22;34369;51.174;6.738;2023-01-15T07:52:51;6.40;82.10
48589;DHT22;34369;51.174;6.738;2023-01-15T07:55:35;6.50;82.00
48589;DHT22;34369;51.174;6.738;2023-01-15T07:58:17;6.40;81.80
48589;DHT22;34369;51.174;6.738;2023-01-15T08:00:51;6.50;81.90
48589;DHT22;34369;51.174;6.738;2023-01-15T08:03:30;6.40;81.80
48589;DHT22;34369;51.174;6.738;2023-01-15T08:06:09;6.50;81.80
48589;DHT22;34369;51.174;6.738;2023-01-15T08:08:43;6.40;81.60
48589;DHT22;34369;51.174;6.738;2023-01-15T08:11:16;6.50;81.50
48589;DHT22;34369;51.174;6.738;2023-01-15T08:14:17;6.40;81.50
48589;DHT22;34369;51.174;6.738;2023-01-15T08:17:20;6.40;81.30
48589;DHT22;34369;51.174;6.738;2023-01-15T08:19:59;6.40;81.10
48589;DHT22;34369;51.174;6.738;2023-01-15T08:22:34;6.50;81.10
48589;DHT22;34369;51.174;6.738;2023-01-15T08:25:16;6.50;80.90
48589;DHT22;34369;51.174;6.738;2023-01-15T08:27:51;6.50;80.70
48589;DHT22;34369;51.174;6.738;2023-01-15T08:30:26;6.40;80.10
48589;DHT22;34369;51.174;6.738;2023-01-15T08:33:01;6.40;79.50
48589;DHT22;34369;51.174;6.738;2023-01-15T08:35:34;6.40;79.00
48589;DHT22;34369;51.174;6.738;2023-01-15T08:38:08;6.30;79.00
48589;DHT22;34369;51.174;6.738;2023-01-15T08:40:42;6.30;79.20
48589;DHT22;34369;51.174;6.738;2023-01-15T08:43:30;6.30;78.60
48589;DHT22;34369;51.174;6.738;2023-01-15T08:46:09;6.30;78.80
48589;DHT22;34369;51.174;6.738;2023-01-15T08:48:47;6.30;78.50
48589;DHT22;34369;51.174;6.738;2023-01-15T08:51:22;6.20;78.80
48589;DHT22;34369;51.174;6.738;2023-01-15T08:53:57;6.30;79.00
48589;DHT22;34369;51.174;6.738;2023-01-15T08:56:38;6.30;79.40
48589;DHT22;34369;51.174;6.738;2023-01-15T08:59:15;6.20;79.20
48589;DHT22;34369;51.174;6.738;2023-01-15T09:01:52;6.20;79.40
48589;DHT22;34369;51.174;6.738;2023-01-15T09:04:41;6.10;79.60
48589;DHT22;34369;51.174;6.738;2023-01-15T09:07:26;6.00;79.50
48589;DHT22;34369;51.174;6.738;2023-01-15T09:10:00;6.10;79.80
48589;DHT22;34369;51.174;6.738;2023-01-15T09:12:34;6.00;80.00
48589;DHT22;34369;51.174;6.738;2023-01-15T09:15:12;5.90;80.20
48589;DHT22;34369;51.174;6.738;2023-01-15T09:17:51;5.90;80.30
48589;DHT22;34369;51.174;6.738;2023-01-15T09:20:31;5.90;80.50
48589;DHT22;34369;51.174;6.738;2023-01-15T09:36:14;6.30;63.20
48589;DHT22;34369;51.174;6.738;2023-01-15T09:38:47;5.60;64.00
48589;DHT22;34369;51.174;6.738;2023-01-15T09:41:21;5.40;64.80
48589;DHT22;34369;51.174;6.738;2023-01-15T09:44:24;5.30;65.40
48589;DHT22;34369;51.174;6.738;2023-01-15T09:47:07;5.30;65.10
48589;DHT22;34369;51.174;6.738;2023-01-15T09:49:50;5.30;65.20
48589;DHT22;34369;51.174;6.738;2023-01-15T09:52:44;5.40;65.00
48589;DHT22;34369;51.174;6.738;2023-01-15T09:55:25;5.50;64.90
48589;DHT22;34369;51.174;6.738;2023-01-15T09:58:02;5.50;65.10
48589;DHT22;34369;51.174;6.738;2023-01-15T10:00:42;5.60;65.10
48589;DHT22;34369;51.174;6.738;2023-01-15T10:03:27;5.70;64.90
48589;DHT22;34369;51.174;6.738;2023-01-15T10:06:09;5.80;64.40
48589;DHT22;34369;51.174;6.738;2023-01-15T10:08:46;5.90;64.40
48589;DHT22;34369;51.174;6.738;2023-01-15T10:11:30;5.90;64.10
48589;DHT22;34369;51.174;6.738;2023-01-15T10:14:39;6.00;63.70
48589;DHT22;34369;51.174;6.738;2023-01-15T10:17:24;6.10;63.40
48589;DHT22;34369;51.174;6.738;2023-01-15T10:19:58;6.30;63.70
48589;DHT22;34369;51.174;6.738;2023-01-15T10:22:40;6.50;64.20
48589;DHT22;34369;51.174;6.738;2023-01-15T10:25:23;6.70;62.80
48589;DHT22;34369;51.174;6.738;2023-01-15T10:28:03;6.90;62.00
48589;DHT22;34369;51.174;6.738;2023-01-15T10:30:46;7.00;61.80
48589;DHT22;34369;51.174;6.738;2023-01-15T10:33:38;7.20;61.70
48589;DHT22;34369;51.174;6.738;2023-01-15T10:36:20;7.40;60.00
48589;DHT22;34369;51.174;6.738;2023-01-15T10:38:59;7.50;59.70
48589;DHT22;34369;51.174;6.738;2023-01-15T10:41:47;7.60;59.60
48589;DHT22;34369;51.174;6.738;2023-01-15T10:44:28;7.60;58.30
48589;DHT22;34369;51.174;6.738;2023-01-15T10:47:14;7.60;59.20
48589;DHT22;34369;51.174;6.738;2023-01-15T10:49:49;7.70;58.80
48589;DHT22;34369;51.174;6.738;2023-01-15T10:52:26;7.70;58.50
48589;DHT22;34369;51.174;6.738;2023-01-15T10:55:05;7.70;58.30
48589;DHT22;34369;51.174;6.738;2023-01-15T10:57:51;7.70;58.00
48589;DHT22;34369;51.174;6.738;2023-01-15T11:00:26;7.70;58.20
48589;DHT22;34369;51.174;6.738;2023-01-15T11:03:00;7.70;58.60
48589;DHT22;34369;51.174;6.738;2023-01-15T11:05:37;7.80;58.20
48589;DHT22;34369;51.174;6.738;2023-01-15T11:08:16;7.80;58.20
48589;DHT22;34369;51.174;6.738;2023-01-15T11:10:53;7.90;56.50
48589;DHT22;34369;51.174;6.738;2023-01-15T11:13:28;7.90;56.70
48589;DHT22;34369;51.174;6.738;2023-01-15T11:16:21;7.80;56.70
48589;DHT22;34369;51.174;6.738;2023-01-15T11:19:23;7.80;56.80
48589;DHT22;34369;51.174;6.738;2023-01-15T11:22:12;7.80;55.90
48589;DHT22;34369;51.174;6.738;2023-01-15T11:24:48;7.70;56.50
48589;DHT22;34369;51.174;6.738;2023-01-15T11:27:24;7.70;56.50
48589;DHT22;34369;51.174;6.738;2023-01-15T11:30:01;7.70;56.50
48589;DHT22;34369;51.174;6.738;2023-01-15T11:32:36;7.70;57.30
48589;DHT22;34369;51.174;6.738;2023-01-15T11:35:15;7.70;56.90
48589;DHT22;34369;51.174;6.738;2023-01-15T11:37:48;7.70;56.20
48589;DHT22;34369;51.174;6.738;2023-01-15T11:40:21;7.70;56.60
48589;DHT22;34369;51.174;6.738;2023-01-15T11:42:54;7.70;56.80
48589;DHT22;34369;51.174;6.738;2023-01-15T11:45:49;7.60;56.60
48589;DHT22;34369;51.174;6.738;2023-01-15T11:48:44;7.60;56.50
48589;DHT22;34369;51.174;6.738;2023-01-15T11:51:49;7.60;56.50
48589;DHT22;34369;51.174;6.738;2023-01-15T11:54:22;7.50;56.60
48589;DHT22;34369;51.174;6.738;2023-01-15T11:56:55;7.50;56.60
48589;DHT22;34369;51.174;6.738;2023-01-15T11:59:27;7.50;56.90
48589;DHT22;34369;51.174;6.738;2023-01-15T12:02:04;7.50;57.20
48589;DHT22;34369;51.174;6.738;2023-01-15T12:04:51;7.50;57.10
48589;DHT22;34369;51.174;6.738;2023-01-15T12:07:25;7.50;57.20
48589;DHT22;34369;51.174;6.738;2023-01-15T12:10:15;7.50;57.10
48589;DHT22;34369;51.174;6.738;2023-01-15T12:13:18;7.60;56.30
48589;DHT22;34369;51.174;6.738;2023-01-15T12:16:02;7.60;56.20
48589;DHT22;34369;51.174;6.738;2023-01-15T12:18:54;7.60;55.90
48589;DHT22;34369;51.174;6.738;2023-01-15T12:21:48;7.60;56.10
48589;DHT22;34369;51.174;6.738;2023-01-15T12:24:45;7.50;56.40
48589;DHT22;34369;51.174;6.738;2023-01-15T12:27:58;7.50;56.50
48589;DHT22;34369;51.174;6.738;2023-01-15T12:30:45;7.50;56.20
48589;DHT22;34369;51.174;6.738;2023-01-15T12:33:40;7.50;56.20
48589;DHT22;34369;51.174;6.738;2023-01-15T12:36:20;7.50;56.60
48589;DHT22;34369;51.174;6.738;2023-01-15T12:38:57;7.50;56.40
48589;DHT22;34369;51.174;6.738;2023-01-15T12:41:32;7.50;56.80
48589;DHT22;34369;51.174;6.738;2023-01-15T12:44:28;7.50;56.80
48589;DHT22;34369;51.174;6.738;2023-01-15T12:47:26;7.50;56.90
48589;DHT22;34369;51.174;6.738;2023-01-15T12:50:03;7.50;56.70
48589;DHT22;34369;51.174;6.738;2023-01-15T12:52:50;7.50;56.90
48589;DHT22;34369;51.174;6.738;2023-01-15T12:55:29;7.50;56.90
48589;DHT22;34369;51.174;6.738;2023-01-15T12:58:04;7.50;57.10
48589;DHT22;34369;51.174;6.738;2023-01-15T13:00:43;7.50;57.10
48589;DHT22;34369;51.174;6.738;2023-01-15T13:03:22;7.50;57.20
48589;DHT22;34369;51.174;6.738;2023-01-15T13:05:58;7.60;56.30
48589;DHT22;34369;51.174;6.738;2023-01-15T13:08:33;7.60;56.50
48589;DHT22;34369;51.174;6.738;2023-01-15T13:11:10;7.60;55.70
48589;DHT22;34369;51.174;6.738;2023-01-15T13:13:43;7.60;56.10
48589;DHT22;34369;51.174;6.738;2023-01-15T13:16:35;7.60;56.20
48589;DHT22;34369;51.174;6.738;2023-01-15T13:19:27;7.50;56.10
48589;DHT22;34369;51.174;6.738;2023-01-15T13:22:09;7.50;55.90
48589;DHT22;34369;51.174;6.738;2023-01-15T13:28:10;7.50;55.80
48589;DHT22;34369;51.174;6.738;2023-01-15T13:30:59;7.50;55.90
48589;DHT22;34369;51.174;6.738;2023-01-15T13:33:40;7.50;55.80
48589;DHT22;34369;51.174;6.738;2023-01-15T13:36:16;7.50;55.60
48589;DHT22;34369;51.174;6.738;2023-01-15T13:38:53;7.50;56.00
48589;DHT22;34369;51.174;6.738;2023-01-15T13:41:32;7.50;56.10
48589;DHT22;34369;51.174;6.738;2023-01-15T13:44:33;7.50;56.00
48589;DHT22;34369;51.174;6.738;2023-01-15T13:47:12;7.50;55.60
48589;DHT22;34369;51.174;6.738;2023-01-15T13:49:51;7.40;55.70
48589;DHT22;34369;51.174;6.738;2023-01-15T13:52:27;7.40;55.50
48589;DHT22;34369;51.174;6.738;2023-01-15T13:55:09;7.30;55.70
48589;DHT22;34369;51.174;6.738;2023-01-15T13:57:44;7.30;55.50
48589;DHT22;34369;51.174;6.738;2023-01-15T14:00:30;7.30;55.90
48589;DHT22;34369;51.174;6.738;2023-01-15T14:03:26;7.30;55.60
48589;DHT22;34369;51.174;6.738;2023-01-15T14:06:01;7.20;54.50
48589;DHT22;34369;51.174;6.738;2023-01-15T14:08:39;7.20;55.60
48589;DHT22;34369;51.174;6.738;2023-01-15T14:11:34;7.20;55.60
48589;DHT22;34369;51.174;6.738;2023-01-15T14:17:43;7.10;55.30
48589;DHT22;34369;51.174;6.738;2023-01-15T14:20:51;7.10;55.40
48589;DHT22;34369;51.174;6.738;2023-01-15T14:26:40;7.10;55.50
48589;DHT22;34369;51.174;6.738;2023-01-15T14:29:53;7.10;55.50
48589;DHT22;34369;51.174;6.738;2023-01-15T14:32:45;7.10;55.70
48589;DHT22;34369;51.174;6.738;2023-01-15T14:35:23;7.10;55.60
48589;DHT22;34369;51.174;6.738;2023-01-15T14:37:57;7.10;56.20
48589;DHT22;34369;51.174;6.738;2023-01-15T14:40:35;7.10;56.20
48589;DHT22;34369;51.174;6.738;2023-01-15T14:43:17;7.10;56.10
48589;DHT22;34369;51.174;6.738;2023-01-15T14:45:52;7.10;55.90
48589;DHT22;34369;51.174;6.738;2023-01-15T14:48:36;7.00;56.10
48589;DHT22;34369;51.174;6.738;2023-01-15T14:51:11;7.00;56.00
48589;DHT22;34369;51.174;6.738;2023-01-15T14:53:47;7.00;56.10
48589;DHT22;34369;51.174;6.738;2023-01-15T14:56:24;7.00;56.10
48589;DHT22;34369;51.174;6.738;2023-01-15T14:59:03;7.00;56.20
48589;DHT22;34369;51.174;6.738;2023-01-15T15:01:43;7.00;56.10
48589;DHT22;34369;51.174;6.738;2023-01-15T15:04:26;7.00;56.20
48589;DHT22;34369;51.174;6.738;2023-01-15T15:07:06;7.00;55.90
48589;DHT22;34369;51.174;6.738;2023-01-15T15:09:45;7.00;56.20
48589;DHT22;34369;51.174;6.738;2023-01-15T15:12:32;7.00;56.20
48589;DHT22;34369;51.174;6.738;2023-01-15T15:15:12;7.00;56.10
48589;DHT22;34369;51.174;6.738;2023-01-15T15:17:56;7.00;56.00
48589;DHT22;34369;51.174;6.738;2023-01-15T15:20:43;7.00;56.10
48589;DHT22;34369;51.174;6.738;2023-01-15T15:23:23;7.00;56.40
48589;DHT22;34369;51.174;6.738;2023-01-15T15:25:59;7.00;56.40
48589;DHT22;34369;51.174;6.738;2023-01-15T15:28:33;7.00;56.50
48589;DHT22;34369;51.174;6.738;2023-01-15T15:31:07;7.00;56.50
48589;DHT22;34369;51.174;6.738;2023-01-15T15:33:41;7.00;56.20
48589;DHT22;34369;51.174;6.738;2023-01-15T15:36:14;7.00;56.10
48589;DHT22;34369;51.174;6.738;2023-01-15T15:38:51;7.00;56.10
48589;DHT22;34369;51.174;6.738;2023-01-15T15:41:28;6.90;55.90
48589;DHT22;34369;51.174;6.738;2023-01-15T15:44:27;6.90;55.90
48589;DHT22;34369;51.174;6.738;2023-01-15T15:47:22;6.90;55.80
48589;DHT22;34369;51.174;6.738;2023-01-15T15:50:22;6.90;56.00
48589;DHT22;34369;51.174;6.738;2023-01-15T15:52:56;6.90;55.80
48589;DHT22;34369;51.174;6.738;2023-01-15T15:55:35;6.80;56.00
48589;DHT22;34369;51.174;6.738;2023-01-15T15:58:14;6.80;56.20
48589;DHT22;34369;51.174;6.738;2023-01-15T16:00:50;6.70;56.20
48589;DHT22;34369;51.174;6.738;2023-01-15T16:03:25;6.70;56.30
48589;DHT22;34369;51.174;6.738;2023-01-15T16:06:02;6.70;56.50
48589;DHT22;34369;51.174;6.738;2023-01-15T16:08:35;6.70;56.60
48589;DHT22;34369;51.174;6.738;2023-01-15T16:11:10;6.70;56.70
48589;DHT22;34369;51.174;6.738;2023-01-15T16:13:46;6.70;56.90
48589;DHT22;34369;51.174;6.738;2023-01-15T16:16:26;6.70;56.90
48589;DHT22;34369;51.174;6.738;2023-01-15T16:18:59;6.70;57.00
48589;DHT22;34369;51.174;6.738;2023-01-15T16:21:34;6.70;57.00
48589;DHT22;34369;51.174;6.738;2023-01-15T16:24:08;6.70;57.00
48589;DHT22;34369;51.174;6.738;2023-01-15T16:26:56;6.70;57.10
48589;DHT22;34369;51.174;6.738;2023-01-15T16:29:32;6.70;57.20
48589;DHT22;34369;51.174;6.738;2023-01-15T16:32:11;6.70;57.20
48589;DHT22;34369;51.174;6.738;2023-01-15T16:34:44;6.70;57.20
48589;DHT22;34369;51.174;6.738;2023-01-15T16:37:24;6.70;57.30
48589;DHT22;34369;51.174;6.738;2023-01-15T16:40:01;6.70;57.20
48589;DHT22;34369;51.174;6.738;2023-01-15T16:42:36;6.70;57.30
48589;DHT22;34369;51.174;6.738;2023-01-15T16:45:19;6.70;57.30
48589;DHT22;34369;51.174;6.738;2023-01-15T16:48:01;6.70;57.30
48589;DHT22;34369;51.174;6.738;2023-01-15T16:50:41;6.70;57.40
48589;DHT22;34369;51.174;6.738;2023-01-15T16:53:35;6.70;57.30
48589;DHT22;34369;51.174;6.738;2023-01-15T16:56:26;6.70;57.50
48589;DHT22;34369;51.174;6.738;2023-01-15T16:59:15;6.70;57.60
48589;DHT22;34369;51.174;6.738;2023-01-15T17:01:48;6.70;57.60
48589;DHT22;34369;51.174;6.738;2023-01-15T17:04:26;6.70;57.60
48589;DHT22;34369;51.174;6.738;2023-01-15T17:07:01;6.70;57.60
48589;DHT22;34369;51.174;6.738;2023-01-15T17:09:36;6.70;57.60
48589;DHT22;34369;51.174;6.738;2023-01-15T17:12:19;6.70;57.60
48589;DHT22;34369;51.174;6.738;2023-01-15T17:15:02;6.70;57.50
48589;DHT22;34369;51.174;6.738;2023-01-15T17:18:18;6.70;57.60
48589;DHT22;34369;51.174;6.738;2023-01-15T17:20:51;6.70;57.80
48589;DHT22;34369;51.174;6.738;2023-01-15T17:23:30;6.70;57.90
48589;DHT22;34369;51.174;6.738;2023-01-15T17:26:06;6.70;58.00
48589;DHT22;34369;51.174;6.738;2023-01-15T17:28:38;6.70;58.30